PWSweather.com
Personal Weather Stations
Station Observations
KTNBARTL6
Rockyford Subdivision, Bartlett, TN 38002

Rockyford SubdivisionBartlett, TN 38002

Lat: 35.2684679, Lon: -89.8370406

Elevation: 260

Station Type: Davis Vantage Pro2 Wireless

http://www.memphisweather.net/wxlive.shtml

Latest ConditionsUpdated 7:25:02 AM CDT Tuesday, Jul 23, 2019
Currently Today's Max Today's Min Today's Average
Temperature 67.5°F19.7°C 70.2°F21.2°C 66.4°F19.1°C 67.6°F19.8°C
Dew Point 63.5°F17.5°C 66.8°F19.3°C 62.7°F17.1°C 65.4°F18.6°C
Winds 1.0 mph NW1.6 kmh NW 2.0 mph -3.2 kmh - - 0.2 mph 0.3 kmh
Wind Gusts 2.0 mph3.2 kmh 5.0 mph8.0 kmh - -
Humidity 87% 95% 87% 93%
Pressure 30.06 in1017.9 mb 30.06 in1017.9 mb 30.00 in1015.9 mb -
Hour Temp Dew Point Humidity Winds Wind Gusts Pressure Precip Precip Rate Daily Precip Total
07:25 AM 67.5°F19.7°C 63.5°F17.5°C 87% 1.0 mph NW1.6 kmh NW 2.0 mph3.2 kmh 30.06 in1017.9 mb 0.00 in0.0 mm 0.00 in0.0 mm 0.01 in0.3 mm
07:15 AM 67.0°F19.4°C 63.0°F17.2°C 87% Calm Calm 3.0 mph4.8 kmh 30.06 in1017.9 mb 0.00 in0.0 mm 0.00 in0.0 mm 0.01 in0.3 mm
07:05 AM 66.7°F19.3°C 62.7°F17.1°C 87% Calm Calm 5.0 mph8.0 kmh 30.06 in1017.9 mb 0.00 in0.0 mm 0.00 in0.0 mm 0.01 in0.3 mm
06:55 AM 66.4°F19.1°C 63.1°F17.3°C 89% Calm Calm 4.0 mph6.4 kmh 30.05 in1017.6 mb 0.00 in0.0 mm 0.00 in0.0 mm 0.01 in0.3 mm
06:45 AM 66.4°F19.1°C 64.0°F17.8°C 92% Calm Calm 4.0 mph6.4 kmh 30.05 in1017.6 mb 0.00 in0.0 mm 0.00 in0.0 mm 0.01 in0.3 mm
06:35 AM 66.5°F19.2°C 64.1°F17.8°C 92% Calm Calm 2.0 mph3.2 kmh 30.05 in1017.6 mb 0.00 in0.0 mm 0.00 in0.0 mm 0.01 in0.3 mm
06:25 AM 66.4°F19.1°C 64.3°F17.9°C 93% Calm Calm 3.0 mph4.8 kmh 30.05 in1017.6 mb 0.00 in0.0 mm 0.00 in0.0 mm 0.01 in0.3 mm
06:15 AM 66.4°F19.1°C 64.3°F17.9°C 93% 2.0 mph N3.2 kmh N 2.0 mph3.2 kmh 30.05 in1017.6 mb 0.01 in0.3 mm 0.00 in0.0 mm 0.01 in0.3 mm
06:05 AM 66.5°F19.2°C 64.7°F18.2°C 94% 1.0 mph NW1.6 kmh NW 2.0 mph3.2 kmh 30.04 in1017.3 mb 0.01 in0.3 mm 0.00 in0.0 mm 0.01 in0.3 mm
05:55 AM 66.6°F19.2°C 64.8°F18.2°C 94% 1.0 mph NW1.6 kmh NW 2.0 mph3.2 kmh 30.03 in1016.9 mb 0.01 in0.3 mm 0.00 in0.0 mm 0.01 in0.3 mm
05:45 AM 66.9°F19.4°C 65.1°F18.4°C 94% Calm Calm 2.0 mph3.2 kmh 30.03 in1016.9 mb 0.01 in0.3 mm 0.00 in0.0 mm 0.01 in0.3 mm
05:35 AM 67.0°F19.4°C 65.2°F18.4°C 94% Calm Calm -- 30.02 in1016.6 mb 0.01 in0.3 mm 0.00 in0.0 mm 0.01 in0.3 mm
05:25 AM 67.2°F19.6°C 65.4°F18.6°C 94% Calm Calm 3.0 mph4.8 kmh 30.02 in1016.6 mb 0.01 in0.3 mm 0.06 in1.5 mm 0.01 in0.3 mm
05:15 AM 67.2°F19.6°C 65.7°F18.7°C 95% 1.0 mph NE1.6 kmh NE 4.0 mph6.4 kmh 30.02 in1016.6 mb 0.00 in0.0 mm 0.00 in0.0 mm 0.00 in0.0 mm
05:05 AM 67.3°F19.6°C 65.5°F18.6°C 94% Calm Calm 1.0 mph1.6 kmh 30.02 in1016.6 mb 0.00 in0.0 mm 0.00 in0.0 mm 0.00 in0.0 mm
04:55 AM 67.4°F19.7°C 65.9°F18.8°C 95% 2.0 mph NE3.2 kmh NE 2.0 mph3.2 kmh 30.01 in1016.3 mb 0.00 in0.0 mm 0.00 in0.0 mm 0.00 in0.0 mm
04:45 AM 67.4°F19.7°C 65.9°F18.8°C 95% Calm Calm -- 30.01 in1016.3 mb 0.00 in0.0 mm 0.00 in0.0 mm 0.00 in0.0 mm
04:35 AM 67.3°F19.6°C 65.8°F18.8°C 95% Calm Calm -- 30.01 in1016.3 mb 0.00 in0.0 mm 0.00 in0.0 mm 0.00 in0.0 mm
04:25 AM 67.3°F19.6°C 65.8°F18.8°C 95% Calm Calm -- 30.01 in1016.3 mb 0.00 in0.0 mm 0.00 in0.0 mm 0.00 in0.0 mm
04:15 AM 67.4°F19.7°C 65.9°F18.8°C 95% Calm Calm -- 30.01 in1016.3 mb 0.00 in0.0 mm 0.00 in0.0 mm 0.00 in0.0 mm
04:05 AM 67.5°F19.7°C 66.0°F18.9°C 95% Calm Calm -- 30.01 in1016.3 mb 0.00 in0.0 mm 0.00 in0.0 mm 0.00 in0.0 mm
03:55 AM 67.6°F19.8°C 66.1°F18.9°C 95% Calm Calm 1.0 mph1.6 kmh 30.01 in1016.3 mb 0.00 in0.0 mm 0.00 in0.0 mm 0.00 in0.0 mm
03:45 AM 67.5°F19.7°C 66.0°F18.9°C 95% Calm Calm -- 30.00 in1015.9 mb 0.00 in0.0 mm 0.00 in0.0 mm 0.00 in0.0 mm
03:35 AM 67.5°F19.7°C 66.0°F18.9°C 95% Calm Calm 2.0 mph3.2 kmh 30.01 in1016.3 mb 0.00 in0.0 mm 0.00 in0.0 mm 0.00 in0.0 mm
03:25 AM 67.4°F19.7°C 65.9°F18.8°C 95% 1.0 mph NW1.6 kmh NW 2.0 mph3.2 kmh 30.00 in1015.9 mb 0.00 in0.0 mm 0.00 in0.0 mm 0.00 in0.0 mm
03:15 AM 67.4°F19.7°C 65.9°F18.8°C 95% Calm Calm 2.0 mph3.2 kmh 30.00 in1015.9 mb 0.00 in0.0 mm 0.00 in0.0 mm 0.00 in0.0 mm
03:05 AM 67.5°F19.7°C 66.0°F18.9°C 95% Calm Calm 1.0 mph1.6 kmh 30.00 in1015.9 mb 0.00 in0.0 mm 0.00 in0.0 mm 0.00 in0.0 mm
02:55 AM 67.3°F19.6°C 65.5°F18.6°C 94% Calm Calm 1.0 mph1.6 kmh 30.00 in1015.9 mb 0.00 in0.0 mm 0.00 in0.0 mm 0.00 in0.0 mm
02:45 AM 67.2°F19.6°C 65.4°F18.6°C 94% Calm Calm -- 30.00 in1015.9 mb 0.00 in0.0 mm 0.00 in0.0 mm 0.00 in0.0 mm
02:35 AM 67.2°F19.6°C 65.4°F18.6°C 94% Calm Calm -- 30.00 in1015.9 mb 0.00 in0.0 mm 0.00 in0.0 mm 0.00 in0.0 mm
02:25 AM 67.3°F19.6°C 65.2°F18.4°C 93% Calm Calm -- 30.00 in1015.9 mb 0.00 in0.0 mm 0.00 in0.0 mm 0.00 in0.0 mm
02:15 AM 67.7°F19.8°C 65.6°F18.7°C 93% Calm Calm -- 30.00 in1015.9 mb 0.00 in0.0 mm 0.00 in0.0 mm 0.00 in0.0 mm
02:05 AM 67.9°F19.9°C 65.8°F18.8°C 93% Calm Calm -- 30.00 in1015.9 mb 0.00 in0.0 mm 0.00 in0.0 mm 0.00 in0.0 mm
01:55 AM 67.9°F19.9°C 65.5°F18.6°C 92% Calm Calm -- 30.00 in1015.9 mb 0.00 in0.0 mm 0.00 in0.0 mm 0.00 in0.0 mm
01:45 AM 68.1°F20.1°C 65.7°F18.7°C 92% Calm Calm -- 30.00 in1015.9 mb 0.00 in0.0 mm 0.00 in0.0 mm 0.00 in0.0 mm
01:35 AM 68.1°F20.1°C 65.7°F18.7°C 92% Calm Calm 1.0 mph1.6 kmh 30.00 in1015.9 mb 0.00 in0.0 mm 0.00 in0.0 mm 0.00 in0.0 mm
01:25 AM 68.2°F20.1°C 65.5°F18.6°C 91% Calm Calm 1.0 mph1.6 kmh 30.00 in1015.9 mb 0.00 in0.0 mm 0.00 in0.0 mm 0.00 in0.0 mm
01:15 AM 68.3°F20.2°C 65.6°F18.7°C 91% Calm Calm 1.0 mph1.6 kmh 30.00 in1015.9 mb 0.00 in0.0 mm 0.00 in0.0 mm 0.00 in0.0 mm
01:05 AM 68.6°F20.3°C 65.9°F18.8°C 91% Calm Calm -- 30.00 in1015.9 mb 0.00 in0.0 mm 0.00 in0.0 mm 0.00 in0.0 mm
12:55 AM 68.8°F20.4°C 66.1°F18.9°C 91% Calm Calm -- 30.00 in1015.9 mb 0.00 in0.0 mm 0.00 in0.0 mm 0.00 in0.0 mm
12:45 AM 69.0°F20.6°C 66.3°F19.1°C 91% Calm Calm 3.0 mph4.8 kmh 30.00 in1015.9 mb 0.00 in0.0 mm 0.00 in0.0 mm 0.00 in0.0 mm
12:35 AM 69.3°F20.7°C 66.3°F19.1°C 90% Calm Calm 1.0 mph1.6 kmh 30.00 in1015.9 mb 0.00 in0.0 mm 0.00 in0.0 mm 0.00 in0.0 mm
12:25 AM 69.5°F20.8°C 66.4°F19.1°C 90% Calm Calm 1.0 mph1.6 kmh 30.00 in1015.9 mb 0.00 in0.0 mm 0.00 in0.0 mm 0.00 in0.0 mm
12:15 AM 69.9°F21.1°C 66.8°F19.3°C 90% 1.0 mph NW1.6 kmh NW 1.0 mph1.6 kmh 30.00 in1015.9 mb 0.00 in0.0 mm 0.00 in0.0 mm 0.00 in0.0 mm
12:05 AM 70.2°F21.2°C 66.8°F19.3°C 89% Calm Calm 1.0 mph1.6 kmh 30.00 in1015.9 mb 0.00 in0.0 mm 0.00 in0.0 mm 0.00 in0.0 mm